createdAt,value
2022-12-02T00:00:49.314Z,100205.63
2022-12-02T00:03:19.213Z,100202.94
2022-12-02T00:05:50.222Z,100196.53
2022-12-02T00:08:20.977Z,100200.25
2022-12-02T00:10:49.639Z,100203.63
2022-12-02T00:13:22.899Z,100196.53
2022-12-02T00:15:53.169Z,100199.06
2022-12-02T00:18:20.362Z,100199.91
2022-12-02T00:20:48.843Z,100194.19
2022-12-02T00:23:15.964Z,100196.53
2022-12-02T00:25:46.019Z,100195.38
2022-12-02T00:28:13.457Z,100184.44
2022-12-02T00:30:40.533Z,100180.06
2022-12-02T00:33:07.767Z,100174.69
2022-12-02T00:35:34.905Z,100175.53
2022-12-02T00:38:04.057Z,100173.50
2022-12-02T00:40:31.181Z,100171.53
2022-12-02T00:42:58.292Z,100166.31
2022-12-02T00:45:25.395Z,100175.53
2022-12-02T00:47:52.485Z,100171.00
2022-12-02T00:50:19.568Z,100175.22
2022-12-02T00:52:46.715Z,100171.69
2022-12-02T00:55:15.319Z,100173.69
2022-12-02T00:57:42.430Z,100172.69
2022-12-02T01:00:11.788Z,100172.69
2022-12-02T01:02:38.981Z,100169.00
2022-12-02T01:05:07.281Z,100168.31
2022-12-02T01:07:34.430Z,100156.53
2022-12-02T01:10:01.590Z,100168.31
2022-12-02T01:12:30.003Z,100161.06
2022-12-02T01:14:57.117Z,100159.94
2022-12-02T01:17:24.210Z,100154.84
2022-12-02T01:19:51.287Z,100165.59
2022-12-02T01:22:18.382Z,100158.25
2022-12-02T01:24:45.537Z,100161.91
2022-12-02T01:27:12.696Z,100161.91
2022-12-02T01:29:41.114Z,100165.31
2022-12-02T01:32:08.298Z,100163.28
2022-12-02T01:34:35.487Z,100166.66
2022-12-02T01:37:02.551Z,100162.97
2022-12-02T01:39:29.664Z,100163.28
2022-12-02T01:41:56.845Z,100161.63
2022-12-02T01:44:24.096Z,100158.25
2022-12-02T01:46:52.862Z,100163.28
2022-12-02T01:49:20.681Z,100164.97
2022-12-02T01:51:48.088Z,100160.78
2022-12-02T01:54:15.395Z,100155.56
2022-12-02T01:56:42.958Z,100158.25
2022-12-02T01:59:12.278Z,100173.22
2022-12-02T02:01:39.788Z,100161.63
2022-12-02T02:04:09.297Z,100160.78
2022-12-02T02:06:38.858Z,100161.91
2022-12-02T02:09:05.943Z,100154.84
2022-12-02T02:11:33.660Z,100158.53
2022-12-02T02:14:01.130Z,100157.38
2022-12-02T02:16:28.308Z,100158.25
2022-12-02T02:18:55.745Z,100153.84
2022-12-02T02:21:27.961Z,100155.56
2022-12-02T02:23:56.679Z,100157.91
2022-12-02T02:26:24.377Z,100153.38
2022-12-02T02:28:51.528Z,100148.66
2022-12-02T02:31:18.990Z,100144.28
2022-12-02T02:33:47.300Z,100145.13
2022-12-02T02:36:14.669Z,100146.81
2022-12-02T02:38:41.776Z,100136.06
2022-12-02T02:41:10.849Z,100139.75
2022-12-02T02:43:38.724Z,100127.31
2022-12-02T02:46:06.065Z,100123.59
2022-12-02T02:48:33.991Z,100121.06
2022-12-02T02:51:02.032Z,100115.19
2022-12-02T02:53:29.167Z,100111.50
2022-12-02T02:55:56.330Z,100109.81
2022-12-02T02:58:26.598Z,100108.94
2022-12-02T03:00:57.287Z,100109.81
2022-12-02T03:03:27.813Z,100104.72
2022-12-02T03:05:56.362Z,100107.25
2022-12-02T03:08:24.733Z,100115.19
2022-12-02T03:10:53.953Z,100115.19
2022-12-02T03:13:21.580Z,100115.69
2022-12-02T03:15:50.426Z,100109.47
2022-12-02T03:18:18.077Z,100116.53
2022-12-02T03:20:45.788Z,100113.69
2022-12-02T03:23:13.341Z,100116.53
2022-12-02T03:25:40.717Z,100112.84
2022-12-02T03:28:07.825Z,100107.47
2022-12-02T03:30:35.083Z,100114.53
2022-12-02T03:33:04.058Z,100112.53
2022-12-02T03:35:31.278Z,100105.13
2022-12-02T03:37:58.512Z,100102.78
2022-12-02T03:40:26.275Z,100104.16
2022-12-02T03:42:53.890Z,100107.53
2022-12-02T03:45:21.025Z,100100.16
2022-12-02T03:47:48.208Z,100094.78
2022-12-02T03:50:17.401Z,100099.81
2022-12-02T03:52:44.655Z,100101.50
2022-12-02T03:55:11.910Z,100096.13
2022-12-02T03:57:39.127Z,100101.31
2022-12-02T04:00:12.551Z,100095.09
2022-12-02T04:02:42.791Z,100088.72
2022-12-02T04:05:10.257Z,100085.34
2022-12-02T04:07:38.761Z,100092.09
2022-12-02T04:10:07.411Z,100086.00
2022-12-02T04:12:34.527Z,100083.31
2022-12-02T04:15:01.601Z,100083.31
2022-12-02T04:17:28.676Z,100081.63
2022-12-02T04:19:55.805Z,100079.97
2022-12-02T04:22:22.916Z,100076.59
2022-12-02T04:24:51.548Z,100076.59
2022-12-02T04:27:18.764Z,100079.97
2022-12-02T04:29:45.951Z,100076.25
2022-12-02T04:32:13.013Z,100073.56
2022-12-02T04:34:40.086Z,100077.28
2022-12-02T04:37:07.150Z,100064.16
2022-12-02T04:39:34.265Z,100067.50
2022-12-02T04:42:02.707Z,100074.91
2022-12-02T04:44:29.793Z,100055.38
2022-12-02T04:46:57.032Z,100054.53
2022-12-02T04:49:24.222Z,100063.78
2022-12-02T04:51:51.277Z,100063.41
2022-12-02T04:54:18.357Z,100058.72
2022-12-02T04:56:45.422Z,100058.81
2022-12-02T04:59:13.832Z,100060.34
2022-12-02T05:01:40.894Z,100070.38
2022-12-02T05:04:07.985Z,100076.28
2022-12-02T05:06:35.102Z,100069.50
2022-12-02T05:09:02.178Z,100069.84
2022-12-02T05:11:34.729Z,100071.00
2022-12-02T05:14:03.636Z,100073.00
2022-12-02T05:16:32.149Z,100077.69
2022-12-02T05:18:59.265Z,100076.03
2022-12-02T05:21:26.359Z,100068.25
2022-12-02T05:23:53.475Z,100070.25
2022-12-02T05:26:20.585Z,100077.31
2022-12-02T05:28:47.645Z,100076.66
2022-12-02T05:31:14.368Z,100084.72
2022-12-02T05:33:42.280Z,100085.88
2022-12-02T05:36:08.984Z,100082.50
2022-12-02T05:38:35.481Z,100087.03
2022-12-02T05:41:01.988Z,100088.75
2022-12-02T05:43:34.838Z,100084.03
2022-12-02T05:46:01.424Z,100082.38
2022-12-02T05:48:28.306Z,100083.38
2022-12-02T05:50:56.198Z,100085.34
2022-12-02T05:53:25.732Z,100087.03
2022-12-02T05:55:53.854Z,100083.66
2022-12-02T05:58:20.826Z,100080.31
2022-12-02T06:00:51.479Z,100080.31
2022-12-02T06:03:20.573Z,100082.31
2022-12-02T06:05:48.265Z,100086.00
2022-12-02T06:08:18.690Z,100080.63
2022-12-02T06:10:49.151Z,100079.75
2022-12-02T06:13:20.229Z,100086.00
2022-12-02T06:15:48.252Z,100088.69
2022-12-02T06:18:16.069Z,100089.66
2022-12-02T06:20:43.233Z,100095.06
2022-12-02T06:23:13.991Z,100097.75
2022-12-02T06:25:42.604Z,100095.06
2022-12-02T06:28:25.522Z,100093.38
2022-12-02T06:30:55.815Z,100099.75
2022-12-02T06:33:26.277Z,100095.38
2022-12-02T06:35:53.894Z,100092.69
2022-12-02T06:38:26.792Z,100083.63
2022-12-02T06:40:54.957Z,100080.94
2022-12-02T06:43:26.277Z,100080.94
2022-12-02T06:45:52.896Z,100084.28
2022-12-02T06:48:27.084Z,100091.38
2022-12-02T06:50:56.060Z,100091.38
2022-12-02T06:53:25.996Z,100089.66
2022-12-02T06:55:59.765Z,100093.38
2022-12-02T06:58:32.103Z,100101.28
2022-12-02T07:01:13.148Z,100090.00
2022-12-02T07:03:44.713Z,100089.16
2022-12-02T07:06:15.415Z,100100.75
2022-12-02T07:08:42.365Z,100097.06
2022-12-02T07:11:20.569Z,100089.66
2022-12-02T07:13:47.456Z,100088.69
2022-12-02T07:16:33.438Z,100085.69
2022-12-02T07:19:00.126Z,100089.38
2022-12-02T07:21:26.794Z,100099.81
2022-12-02T07:23:53.408Z,100093.78
2022-12-02T07:26:21.314Z,100090.09
2022-12-02T07:28:47.857Z,100095.47
2022-12-02T07:31:22.344Z,100100.22
2022-12-02T07:33:49.442Z,100096.53
2022-12-02T07:36:16.039Z,100098.22
2022-12-02T07:39:05.188Z,100096.19
2022-12-02T07:41:34.735Z,100096.19
2022-12-02T07:44:02.978Z,100096.19
2022-12-02T07:46:29.549Z,100098.88
2022-12-02T07:48:57.448Z,100094.84
2022-12-02T07:51:24.302Z,100094.00
2022-12-02T07:53:50.881Z,100083.41
2022-12-02T07:56:17.472Z,100079.88
2022-12-02T08:01:32.151Z,100091.47
2022-12-02T08:03:58.951Z,100096.88
2022-12-02T08:06:25.571Z,100084.94
2022-12-02T08:08:52.090Z,100094.84
2022-12-02T08:11:18.740Z,100094.84
2022-12-02T08:13:46.639Z,100091.47
2022-12-02T08:16:13.208Z,100095.16
2022-12-02T08:18:39.793Z,100093.16
2022-12-02T08:21:09.131Z,100095.84
2022-12-02T08:23:36.012Z,100091.47
2022-12-02T08:26:02.530Z,100088.78
2022-12-02T08:28:29.057Z,100098.72
2022-12-02T08:30:56.993Z,100090.81
2022-12-02T08:33:23.613Z,100093.84
2022-12-02T08:35:50.147Z,100091.47
2022-12-02T08:38:16.722Z,100089.47
2022-12-02T08:40:43.527Z,100089.13
2022-12-02T08:43:10.101Z,100091.00
2022-12-02T08:45:36.605Z,100093.50
2022-12-02T08:48:04.755Z,100093.50
2022-12-02T08:50:31.300Z,100096.19
2022-12-02T08:52:58.719Z,100096.53
2022-12-02T08:55:25.766Z,100101.06
2022-12-02T08:57:52.392Z,100102.25
2022-12-02T09:00:19.489Z,100105.91
2022-12-02T09:02:46.085Z,100103.94
2022-12-02T09:05:14.209Z,100097.84
2022-12-02T09:07:41.187Z,100099.56
2022-12-02T09:10:09.618Z,100104.94
2022-12-02T09:12:36.128Z,100098.53
2022-12-02T09:15:02.831Z,100091.16
2022-12-02T09:17:29.350Z,100094.84
2022-12-02T09:19:55.878Z,100087.47
2022-12-02T09:22:23.752Z,100081.22
2022-12-02T09:24:50.561Z,100084.94
2022-12-02T09:27:17.210Z,100073.00
2022-12-02T09:29:43.748Z,100061.41
2022-12-02T09:32:10.271Z,100065.94
2022-12-02T09:34:36.949Z,100065.94
2022-12-02T09:37:03.593Z,100070.16
2022-12-02T09:39:37.048Z,100061.09
2022-12-02T09:42:05.867Z,100070.69
2022-12-02T09:44:32.509Z,100063.78
2022-12-02T09:46:59.342Z,100063.63
2022-12-02T09:49:26.241Z,100065.31
2022-12-02T09:51:55.863Z,100062.78
2022-12-02T09:54:22.401Z,100061.94
2022-12-02T09:56:50.255Z,100056.03
2022-12-02T09:59:17.373Z,100064.09
2022-12-02T10:01:45.983Z,100074.69
2022-12-02T10:04:15.798Z,100067.63
2022-12-02T10:06:43.494Z,100056.19
2022-12-02T10:09:15.244Z,100066.78
2022-12-02T10:11:41.971Z,100059.38
2022-12-02T10:14:11.939Z,100054.16
2022-12-02T10:16:39.046Z,100048.31
2022-12-02T10:19:06.452Z,100044.97
2022-12-02T10:21:33.727Z,100052.84
2022-12-02T10:24:02.119Z,100048.50
2022-12-02T10:26:43.339Z,100054.53
2022-12-02T10:29:16.080Z,100041.75
2022-12-02T10:31:53.044Z,100050.84
2022-12-02T10:34:21.530Z,100045.13
2022-12-02T10:36:48.752Z,100053.91
2022-12-02T10:39:25.957Z,100047.34
2022-12-02T10:42:07.204Z,100051.38
2022-12-02T10:44:36.257Z,100044.63
2022-12-02T10:47:12.226Z,100047.78
2022-12-02T10:49:45.268Z,100042.41
2022-12-02T10:52:12.500Z,100037.88
2022-12-02T10:54:44.217Z,100035.72
2022-12-02T10:57:16.324Z,100042.78
2022-12-02T10:59:44.388Z,100038.41
2022-12-02T11:02:19.989Z,100039.41
2022-12-02T11:04:46.770Z,100039.41
2022-12-02T11:07:14.331Z,100038.38
2022-12-02T11:09:44.935Z,100031.47
2022-12-02T11:12:35.090Z,100022.53
2022-12-02T11:15:25.781Z,100016.47
2022-12-02T11:17:52.745Z,100011.09
2022-12-02T11:20:30.453Z,100014.47
2022-12-02T11:23:25.119Z,100019.53
2022-12-02T11:26:06.884Z,100016.47
2022-12-02T11:29:05.019Z,100015.47
2022-12-02T11:31:33.118Z,100019.16
2022-12-02T11:34:26.403Z,100022.19
2022-12-02T11:37:30.529Z,100021.91
2022-12-02T11:39:58.898Z,100023.53
2022-12-02T11:42:26.982Z,100019.84
2022-12-02T11:44:54.882Z,100021.19
2022-12-02T11:47:30.095Z,100031.28
2022-12-02T11:50:19.002Z,100015.44
2022-12-02T11:52:51.753Z,100027.88
2022-12-02T11:55:20.508Z,100027.56
2022-12-02T11:57:49.330Z,100013.13
2022-12-02T12:00:25.988Z,100013.13
2022-12-02T12:03:12.555Z,100006.06
2022-12-02T12:05:39.753Z,100013.44
2022-12-02T12:08:06.585Z,100014.59
2022-12-02T12:10:35.377Z,100012.56
2022-12-02T12:13:16.716Z,100002.00
2022-12-02T12:16:04.136Z,100007.19
2022-12-02T12:18:41.581Z,100002.69
2022-12-02T12:21:08.974Z,100008.06
2022-12-02T12:23:37.046Z,100008.38
2022-12-02T12:26:04.712Z,100003.31
2022-12-02T12:28:32.964Z,100007.03
2022-12-02T12:31:00.820Z,100015.75
2022-12-02T12:33:27.793Z,100012.06
2022-12-02T12:35:56.850Z,100010.38
2022-12-02T12:38:30.191Z,100010.91
2022-12-02T12:40:57.371Z,100007.69
2022-12-02T12:43:23.947Z,100001.66
2022-12-02T12:45:50.599Z,100013.53
2022-12-02T12:48:17.205Z,100009.34
2022-12-02T12:50:43.735Z,100001.94
2022-12-02T12:53:11.607Z,99998.25
2022-12-02T12:55:38.169Z,99997.41
2022-12-02T12:58:04.700Z,100001.66
2022-12-02T13:00:31.299Z,99999.63
2022-12-02T13:02:57.910Z,100006.19
2022-12-02T13:05:24.526Z,100002.66
2022-12-02T13:07:51.104Z,100001.66
2022-12-02T13:10:19.021Z,99996.28
2022-12-02T13:12:45.553Z,99999.63
2022-12-02T13:15:12.141Z,100004.34
2022-12-02T13:17:39.546Z,99999.63
2022-12-02T13:20:09.511Z,99994.59
2022-12-02T13:22:36.169Z,99994.25
2022-12-02T13:25:03.368Z,99991.56
2022-12-02T13:27:31.308Z,99999.63
2022-12-02T13:29:57.834Z,100003.31
2022-12-02T13:32:24.459Z,99998.97
2022-12-02T13:34:51.458Z,100003.00
2022-12-02T13:37:18.321Z,100004.16
2022-12-02T13:39:44.837Z,100004.69
2022-12-02T13:42:11.333Z,100001.81
2022-12-02T13:44:39.205Z,100003.00
2022-12-02T13:47:05.811Z,100006.34
2022-12-02T13:49:32.385Z,99999.28
2022-12-02T13:51:59.194Z,100003.00
2022-12-02T13:54:26.248Z,99999.28
2022-12-02T13:56:52.946Z,99993.91
2022-12-02T13:59:19.449Z,100002.69
2022-12-02T14:01:47.351Z,99999.28
2022-12-02T14:04:14.034Z,99991.94
2022-12-02T14:06:40.632Z,99997.16
2022-12-02T14:09:07.186Z,100003.53
2022-12-02T14:11:33.754Z,100000.13
2022-12-02T14:14:00.252Z,100002.16
2022-12-02T14:16:26.970Z,100000.47
2022-12-02T14:18:57.461Z,100003.31
2022-12-02T14:21:24.628Z,100004.16
2022-12-02T14:23:51.137Z,100005.00
2022-12-02T14:26:17.835Z,100004.16
2022-12-02T14:28:44.381Z,100009.53
2022-12-02T14:31:20.294Z,100010.38
2022-12-02T14:34:10.878Z,100007.53
2022-12-02T14:36:39.549Z,100011.22
2022-12-02T14:39:06.095Z,100013.06
2022-12-02T14:41:32.657Z,100005.00
2022-12-02T14:43:59.172Z,99999.97
2022-12-02T14:46:25.877Z,100014.09
2022-12-02T14:48:56.648Z,100007.88
2022-12-02T14:51:29.580Z,100008.72
2022-12-02T14:53:57.583Z,100012.41
2022-12-02T14:56:24.166Z,100018.78
2022-12-02T14:58:50.732Z,100014.09
2022-12-02T15:01:17.374Z,100019.75
2022-12-02T15:03:44.028Z,100024.16
2022-12-02T15:06:10.766Z,100013.41
2022-12-02T15:08:37.378Z,100019.75
2022-12-02T15:11:05.406Z,100014.38
2022-12-02T15:13:31.962Z,100007.31
2022-12-02T15:16:02.935Z,100014.38
2022-12-02T15:18:29.931Z,100024.31
2022-12-02T15:22:07.855Z,100021.78
2022-12-02T15:26:27.582Z,100026.47
2022-12-02T15:28:54.714Z,100028.16
2022-12-02T15:31:21.903Z,100022.09
2022-12-02T15:33:49.103Z,100020.44
2022-12-02T15:36:16.452Z,100020.44
2022-12-02T15:38:43.547Z,100016.72
2022-12-02T15:41:10.757Z,100016.72
2022-12-02T15:43:39.262Z,100024.78
2022-12-02T15:46:06.482Z,100027.31
2022-12-02T15:48:33.581Z,100027.50
2022-12-02T15:51:00.663Z,100020.44
2022-12-02T15:53:27.742Z,100026.66
2022-12-02T15:55:54.882Z,100030.19
2022-12-02T15:58:21.967Z,100019.41
2022-12-02T16:00:50.510Z,100035.38
2022-12-02T16:03:17.657Z,100022.09
2022-12-02T16:05:44.713Z,100031.19
2022-12-02T16:08:11.820Z,100025.81
2022-12-02T16:10:38.921Z,100024.78
2022-12-02T16:13:06.086Z,100030.19
2022-12-02T16:15:33.188Z,100026.66
2022-12-02T16:18:01.606Z,100020.44
2022-12-02T16:20:29.488Z,100029.47
2022-12-02T16:22:56.624Z,100024.09
2022-12-02T16:25:23.733Z,100029.47
2022-12-02T16:27:50.808Z,100028.63
2022-12-02T16:30:18.164Z,100032.16
2022-12-02T16:32:45.366Z,100034.16
2022-12-02T16:36:36.057Z,100031.19
2022-12-02T16:39:03.153Z,100030.34
2022-12-02T16:41:30.281Z,100035.19
2022-12-02T16:43:57.519Z,100044.25
2022-12-02T16:46:24.650Z,100037.88
2022-12-02T16:48:51.777Z,100046.94
2022-12-02T16:51:18.879Z,100047.09
2022-12-02T16:55:05.011Z,100049.94
2022-12-02T16:57:32.078Z,100042.88
2022-12-02T16:59:59.292Z,100037.47
2022-12-02T17:02:31.913Z,100044.56
2022-12-02T17:04:59.401Z,100046.56
2022-12-02T17:07:26.018Z,100047.56
2022-12-02T17:09:52.745Z,100044.88
2022-12-02T17:12:21.127Z,100051.94
2022-12-02T17:14:52.024Z,100048.56
2022-12-02T17:17:44.302Z,100052.25
2022-12-02T17:20:09.368Z,100046.88
2022-12-02T17:22:35.929Z,100046.03
2022-12-02T17:25:02.429Z,100052.25
2022-12-02T17:27:30.340Z,100052.25
2022-12-02T17:29:56.867Z,100049.56
2022-12-02T17:32:23.546Z,100050.25
2022-12-02T17:34:50.575Z,100049.56
2022-12-02T17:37:17.242Z,100051.25
2022-12-02T17:39:43.716Z,100045.88
2022-12-02T17:42:10.232Z,100053.09
2022-12-02T17:44:38.136Z,100054.63
2022-12-02T17:47:04.717Z,100062.00
2022-12-02T17:49:34.463Z,100059.31
2022-12-02T17:52:19.245Z,100063.00
2022-12-02T17:54:46.524Z,100067.38
2022-12-02T17:57:13.012Z,100063.84
2022-12-02T17:59:40.951Z,100062.00
2022-12-02T18:02:08.791Z,100063.00
2022-12-02T18:04:35.417Z,100068.38
2022-12-02T18:07:06.553Z,100065.88
2022-12-02T18:09:35.951Z,100064.19
2022-12-02T18:12:02.577Z,100063.34
2022-12-02T18:14:29.131Z,100067.00
2022-12-02T18:16:57.109Z,100068.00
2022-12-02T18:19:23.830Z,100071.41
2022-12-02T18:21:50.365Z,100065.31
2022-12-02T18:24:16.946Z,100067.31
2022-12-02T18:26:43.589Z,100076.41
2022-12-02T18:29:10.124Z,100067.31
2022-12-02T18:31:36.647Z,100060.28
2022-12-02T18:34:04.559Z,100061.94
2022-12-02T18:36:31.088Z,100060.28
2022-12-02T18:38:57.613Z,100054.06
2022-12-02T18:41:24.187Z,100049.81
2022-12-02T18:43:50.710Z,100049.81
2022-12-02T18:46:17.319Z,100056.19
2022-12-02T18:48:43.874Z,100048.13
2022-12-02T18:51:11.747Z,100056.34
2022-12-02T18:53:38.288Z,100057.19
2022-12-02T18:56:05.475Z,100045.44
2022-12-02T18:58:31.982Z,100047.44
2022-12-02T19:00:58.565Z,100048.47
2022-12-02T19:03:25.190Z,100043.09
2022-12-02T19:05:51.774Z,100043.09
2022-12-02T19:08:19.706Z,100046.78
2022-12-02T19:10:46.308Z,100046.78
2022-12-02T19:13:12.874Z,100044.09
2022-12-02T19:15:39.468Z,100047.63
2022-12-02T19:18:06.003Z,100047.78
2022-12-02T19:20:32.536Z,100048.47
2022-12-02T19:22:59.073Z,100049.63
2022-12-02T19:25:26.938Z,100042.41
2022-12-02T19:27:57.821Z,100047.06
2022-12-02T19:30:25.095Z,100053.28
2022-12-02T19:32:51.595Z,100047.78
2022-12-02T19:35:18.134Z,100058.66
2022-12-02T19:37:44.692Z,100059.53
2022-12-02T19:40:12.398Z,100056.97
2022-12-02T19:42:40.310Z,100056.13
2022-12-02T19:45:09.166Z,100058.81
2022-12-02T19:47:35.749Z,100059.81
2022-12-02T19:50:02.276Z,100059.81
2022-12-02T19:52:28.770Z,100059.81
2022-12-02T19:54:55.746Z,100065.19
2022-12-02T19:57:22.459Z,100059.81
2022-12-02T19:59:50.315Z,100066.22
2022-12-02T20:02:16.898Z,100051.09
2022-12-02T20:04:43.472Z,100061.84
2022-12-02T20:07:09.991Z,100061.84
2022-12-02T20:09:36.591Z,100074.28
2022-12-02T20:12:03.605Z,100057.31
2022-12-02T20:14:30.128Z,100058.47
2022-12-02T20:16:58.002Z,100063.53
2022-12-02T20:19:24.556Z,100058.16
2022-12-02T20:21:51.126Z,100063.84
2022-12-02T20:24:17.626Z,100054.78
2022-12-02T20:26:44.151Z,100053.94
2022-12-02T20:29:10.665Z,100052.25
2022-12-02T20:31:37.270Z,100057.63
2022-12-02T20:34:05.199Z,100054.06
2022-12-02T20:36:31.709Z,100054.22
2022-12-02T20:38:58.288Z,100053.09
2022-12-02T20:41:24.796Z,100052.53
2022-12-02T20:43:51.319Z,100053.38
2022-12-02T20:46:17.892Z,100055.06
2022-12-02T20:48:44.563Z,100053.38
2022-12-02T20:51:12.398Z,100052.53
2022-12-02T20:53:38.887Z,100057.06
2022-12-02T20:56:05.517Z,100055.41
2022-12-02T20:58:32.086Z,100055.41
2022-12-02T21:00:58.673Z,100058.25
2022-12-02T21:03:25.278Z,100056.41
2022-12-02T21:05:51.782Z,100052.31
2022-12-02T21:08:19.811Z,100055.34
2022-12-02T21:10:46.330Z,100058.03
2022-12-02T21:13:12.842Z,100053.81
2022-12-02T21:15:39.337Z,100057.47
2022-12-02T21:18:05.925Z,100056.63
2022-12-02T21:20:32.525Z,100045.38
2022-12-02T21:22:59.033Z,100060.63
2022-12-02T21:25:26.998Z,100049.22
2022-12-02T21:27:53.498Z,100050.19
2022-12-02T21:30:20.081Z,100061.81
2022-12-02T21:32:46.620Z,100051.91
2022-12-02T21:35:13.267Z,100053.88
2022-12-02T21:37:39.792Z,100057.56
2022-12-02T21:40:07.829Z,100059.25
2022-12-02T21:42:35.692Z,100062.94
2022-12-02T21:45:02.252Z,100061.56
2022-12-02T21:47:28.836Z,100054.53
2022-12-02T21:49:55.420Z,100063.69
2022-12-02T21:52:22.037Z,100064.88
2022-12-02T21:54:48.544Z,100062.19
2022-12-02T21:57:15.052Z,100058.50
2022-12-02T21:59:43.147Z,100064.19
2022-12-02T22:02:12.633Z,100064.31
2022-12-02T22:04:39.281Z,100062.78
2022-12-02T22:07:05.845Z,100064.47
2022-12-02T22:09:32.437Z,100054.06
2022-12-02T22:11:58.961Z,100059.41
2022-12-02T22:14:25.514Z,100059.72
2022-12-02T22:16:53.499Z,100062.25
2022-12-02T22:19:20.052Z,100056.91
2022-12-02T22:21:46.642Z,100057.72
2022-12-02T22:24:13.168Z,100053.38
2022-12-02T22:26:39.685Z,100056.06
2022-12-02T22:29:06.168Z,100053.50
2022-12-02T22:31:32.768Z,100056.06
2022-12-02T22:34:00.726Z,100056.19
2022-12-02T22:36:27.268Z,100056.34
2022-12-02T22:38:53.845Z,100056.34
2022-12-02T22:41:20.403Z,100059.19
2022-12-02T22:43:46.959Z,100052.97
2022-12-02T22:46:13.571Z,100051.28
2022-12-02T22:48:40.131Z,100046.75
2022-12-02T22:51:08.067Z,100049.28
2022-12-02T22:53:34.637Z,100052.97
2022-12-02T22:56:01.391Z,100045.09
2022-12-02T22:58:27.951Z,100051.56
2022-12-02T23:00:54.518Z,100049.59
2022-12-02T23:03:21.079Z,100047.91
2022-12-02T23:05:47.627Z,100043.53
2022-12-02T23:08:15.575Z,100048.75
2022-12-02T23:10:42.161Z,100044.53
2022-12-02T23:13:08.704Z,100044.53
2022-12-02T23:15:37.827Z,100042.84
2022-12-02T23:18:05.147Z,100038.31
2022-12-02T23:20:31.729Z,100042.84
2022-12-02T23:22:58.230Z,100042.84
2022-12-02T23:25:26.187Z,100032.09
2022-12-02T23:27:52.735Z,100041.00
2022-12-02T23:30:25.108Z,100029.41
2022-12-02T23:32:55.254Z,100034.09
2022-12-02T23:35:21.813Z,100022.53
2022-12-02T23:37:48.340Z,100022.53
2022-12-02T23:40:14.873Z,100034.44
2022-12-02T23:42:42.819Z,100038.06
2022-12-02T23:45:10.420Z,100032.72
2022-12-02T23:47:37.317Z,100025.38
2022-12-02T23:50:04.700Z,100018.31
2022-12-02T23:52:31.189Z,100023.97
2022-12-02T23:54:57.706Z,100024.97
2022-12-02T23:57:24.201Z,100023.97
2022-12-02T23:59:52.163Z,100022.28
